Flight Track Log - Related Links

Times and Time Zones

All times are in EDT time to prevent confusion due to time zone crossing. See the CTL312 flight status page for this flight to view local times or setup timezone preferences in your user account.

Time Position Orientation Groundspeed Altitude Reporting Facility
EDT Latitude Longitude Course Direction KTS MPH feet Rate Location/Type
Wed 10:01:05 PM 41.5317 -81.6706 349° North 122 140 1,200  Level Cleveland Center
Wed 10:01:41 PM 41.5544 -81.6764 349° North 132 152 1,700 1,049 Climbing Cleveland Center
Wed 10:02:48 PM 41.5939 -81.6964 339° North 139 160 3,000 1,041 Climbing Cleveland Center
Wed 10:03:42 PM 41.6231 -81.7136 336° Northwest 135 155 3,800 887 Climbing Cleveland Center
Wed 10:04:43 PM 41.6622 -81.7367 336° Northwest 143 165 4,700 744 Climbing Cleveland Center
Wed 10:05:43 PM 41.6997 -81.7567 338° Northwest 151 174 5,300 586 Climbing Cleveland Center
Wed 10:06:56 PM 41.7453 -81.7769 342° North 155 178 6,000 316 Climbing Cleveland Center
Wed 10:07:56 PM 41.7889 -81.8031 336° Northwest 150 173 6,000  Level Cleveland Center
Wed 10:08:56 PM 41.8322 -81.8261 338° Northwest 150 173 6,000  Level Cleveland Center
Wed 10:09:56 PM 41.8758 -81.8492 339° North 160 184 6,000  Level Cleveland Center
Wed 10:10:56 PM 41.9108 -81.8889 320° Northwest 160 184 6,000  Level Cleveland Center
Wed 10:11:56 PM 41.9372 -81.9453 302° West 168 193 6,000  Level Cleveland Center
Wed 10:12:56 PM 41.9636 -81.9961 305° West 173 199 6,000 -50 Level Cleveland Center
Wed 10:13:56 PM 41.9903 -82.0497 304° West 168 193 5,900  Descending Cleveland Center
Wed 10:14:56 PM 42.0103 -82.0978 299° West 168 193 6,000 50 Climbing Cleveland Center
Wed 10:15:56 PM 42.0389 -82.1572 303° West 168 193 6,000  Level Cleveland Center
Wed 10:16:45 PM 42.0633 -82.1997 308° West 171 197 6,000  Level Cleveland Center
Wed 10:17:56 PM 42.0914 -82.2647 300° West 168 193 6,000  Level Cleveland Center
Wed 10:18:56 PM 42.1156 -82.3186 301° West 168 193 6,000  Level Cleveland Center
Wed 10:19:56 PM 42.1442 -82.3697 307° West 168 193 6,000  Level Cleveland Center
Wed 10:20:56 PM 42.1703 -82.4211 304° West 168 193 6,000  Level Cleveland Center
Wed 10:21:56 PM 42.1967 -82.4750 303° West 168 193 6,000  Level Cleveland Center
Wed 10:22:56 PM 42.2250 -82.5264 307° West 168 193 6,000  Level Cleveland Center
Wed 10:23:56 PM 42.2511 -82.5778 304° West 168 193 6,000  Level Cleveland Center
Wed 10:24:56 PM 42.2794 -82.6319 305° West 168 193 6,000  Level Cleveland Center
Wed 10:25:56 PM 42.3075 -82.6833 306° West 173 199 6,000  Level Cleveland Center
Wed 10:27:04 PM 42.3419 -82.7461 307° West 171 197 6,000  Level Cleveland Center
Wed 10:28:05 PM 42.3700 -82.7950 308° West 171 197 6,000 -49 Level Cleveland Center
Wed 10:29:06 PM 42.3961 -82.8494 303° West 171 197 5,900  Descending Cleveland Center
Wed 10:30:06 PM 42.4222 -82.9036 303° West 171 197 6,000 50 Climbing Cleveland Center
Wed 10:31:07 PM 42.4481 -82.9581 303° West 169 194 6,000 -197 Level Cleveland Center
Wed 10:32:08 PM 42.4700 -83.0153 297° West 173 199 5,600 -595 Descending Cleveland Center
Wed 10:33:08 PM 42.5019 -83.0756 306° West 188 216 4,800 -709 Descending Cleveland Center
Wed 10:34:15 PM 42.5317 -83.1417 301° West 183 211 4,100 -582 Descending Cleveland Center
Wed 10:35:22 PM 42.5597 -83.2019 302° West 175 201 3,500 -545 Descending Cleveland Center
Wed 10:36:16 PM 42.5792 -83.2536 297° West 176 203 3,000 -545 Descending Cleveland Center
Wed 10:37:23 PM 42.6092 -83.3169 303° West 171 197 2,400 -471 Descending Cleveland Center
Wed 10:38:36 PM 42.6367 -83.3858 299° West 166 191 1,900 -347 Descending Cleveland Center
Wed 10:39:24 PM 42.6439 -83.4286 283° West 155 178 1,700 -250 Descending Cleveland Center
Wed 10:41:00 PM 42.6500 -83.4167 270° West  Level FlightAware Approximate
Wed 10:48:00 PM 42.6656 -83.4205 270° West  Level Estimated
Wed 10:49:00 PM 42.6656 -83.4205 270° West  Level Estimated

Login

Don't have an account? Register now (free) for customized features, flight alerts, and more!